createdAt,value
2023-02-07T00:01:52.184Z,24.00
2023-02-07T00:04:20.639Z,21.85
2023-02-07T00:06:49.128Z,21.02
2023-02-07T00:09:17.495Z,13.88
2023-02-07T00:11:47.158Z,14.63
2023-02-07T00:14:15.494Z,17.50
2023-02-07T00:16:43.762Z,17.00
2023-02-07T00:19:13.170Z,20.23
2023-02-07T00:21:41.693Z,14.93
2023-02-07T00:24:12.481Z,14.13
2023-02-07T00:26:41.056Z,23.42
2023-02-07T00:29:13.749Z,14.52
2023-02-07T00:31:41.974Z,15.35
2023-02-07T00:34:10.090Z,18.20
2023-02-07T00:36:39.626Z,16.15
2023-02-07T00:39:09.886Z,10.52
2023-02-07T00:41:38.089Z,16.38
2023-02-07T00:44:07.121Z,9.05
2023-02-07T00:46:37.375Z,16.08
2023-02-07T00:49:06.018Z,14.13
2023-02-07T00:51:34.909Z,10.77
2023-02-07T00:54:03.146Z,12.98
2023-02-07T00:56:32.426Z,21.00
2023-02-07T00:59:01.831Z,15.57
2023-02-07T01:01:30.141Z,10.38
2023-02-07T01:03:59.632Z,13.32
2023-02-07T01:06:28.106Z,17.48
2023-02-07T01:08:58.114Z,14.77
2023-02-07T01:11:28.801Z,11.48
2023-02-07T01:13:56.978Z,15.23
2023-02-07T01:16:28.695Z,10.27
2023-02-07T01:18:57.216Z,16.25
2023-02-07T01:21:28.396Z,16.80
2023-02-07T01:23:57.345Z,11.90
2023-02-07T01:26:26.297Z,9.43
2023-02-07T01:28:55.010Z,10.30
2023-02-07T01:31:25.057Z,10.38
2023-02-07T01:33:55.948Z,18.40
2023-02-07T01:36:24.531Z,14.30
2023-02-07T01:38:55.233Z,12.77
2023-02-07T01:41:24.512Z,11.43
2023-02-07T01:44:07.524Z,17.27
2023-02-07T01:46:37.044Z,7.22
2023-02-07T01:49:10.112Z,24.33
2023-02-07T01:51:40.986Z,8.95
2023-02-07T01:54:13.232Z,9.55
2023-02-07T01:56:44.701Z,15.48
2023-02-07T01:59:13.715Z,8.35
2023-02-07T02:01:43.161Z,15.20
2023-02-07T02:04:11.553Z,10.02
2023-02-07T02:06:41.491Z,10.95
2023-02-07T02:09:13.248Z,17.13
2023-02-07T02:12:14.034Z,14.15
2023-02-07T02:15:00.795Z,4.97
2023-02-07T02:17:39.016Z,8.25
2023-02-07T02:20:51.423Z,11.93
2023-02-07T02:23:30.262Z,22.45
2023-02-07T02:26:28.112Z,10.20
2023-02-07T02:29:44.922Z,10.50
2023-02-07T02:32:46.898Z,10.10
2023-02-07T02:35:21.256Z,7.35
2023-02-07T02:37:58.583Z,7.40
2023-02-07T02:40:34.490Z,17.17
2023-02-07T02:43:08.019Z,7.75
2023-02-07T02:45:41.005Z,10.32
2023-02-07T02:48:13.030Z,13.52
2023-02-07T02:50:42.530Z,11.63
2023-02-07T02:53:11.335Z,9.65
2023-02-07T02:55:59.599Z,6.38
2023-02-07T02:58:35.674Z,10.98
2023-02-07T03:01:12.896Z,10.98
2023-02-07T03:04:11.249Z,11.75
2023-02-07T03:06:51.038Z,13.18
2023-02-07T03:09:32.021Z,13.95
2023-02-07T03:12:08.586Z,11.82
2023-02-07T03:14:46.630Z,11.40
2023-02-07T03:17:19.872Z,6.72
2023-02-07T03:19:54.708Z,4.65
2023-02-07T03:22:26.020Z,3.45
2023-02-07T03:24:59.089Z,7.38
2023-02-07T03:27:29.222Z,5.20
2023-02-07T03:32:31.302Z,7.00
2023-02-07T03:35:06.066Z,11.95
2023-02-07T03:37:39.232Z,7.38
2023-02-07T03:40:08.458Z,4.47
2023-02-07T03:42:40.786Z,19.23
2023-02-07T03:45:13.836Z,8.38
2023-02-07T03:47:42.002Z,11.52
2023-02-07T03:50:14.753Z,9.23
2023-02-07T03:52:42.863Z,9.35
2023-02-07T03:55:13.254Z,9.10
2023-02-07T04:00:11.041Z,9.07
2023-02-07T04:02:39.025Z,4.45
2023-02-07T04:05:08.471Z,10.45
2023-02-07T04:07:39.065Z,6.90
2023-02-07T04:10:08.493Z,12.57
2023-02-07T04:12:36.681Z,14.18
2023-02-07T04:15:06.618Z,15.38
2023-02-07T04:20:04.584Z,9.85
2023-02-07T04:22:32.858Z,10.48
2023-02-07T04:25:02.374Z,9.60
2023-02-07T04:27:30.542Z,5.88
2023-02-07T04:29:58.806Z,10.30
2023-02-07T04:32:26.917Z,8.68
2023-02-07T04:34:55.000Z,7.43
2023-02-07T04:37:23.374Z,4.95
2023-02-07T04:39:54.314Z,11.57
2023-02-07T04:42:23.816Z,8.27
2023-02-07T04:44:51.854Z,8.65
2023-02-07T04:47:20.107Z,12.00
2023-02-07T04:49:48.202Z,8.93
2023-02-07T04:52:16.326Z,17.50
2023-02-07T04:54:45.373Z,8.05
2023-02-07T04:57:13.539Z,11.18
2023-02-07T04:59:42.978Z,14.15
2023-02-07T05:02:11.119Z,7.85
2023-02-07T05:04:40.685Z,13.45
2023-02-07T05:07:08.759Z,15.18
2023-02-07T05:09:36.820Z,9.95
2023-02-07T05:12:08.048Z,12.02
2023-02-07T05:14:36.138Z,8.60
2023-02-07T05:17:05.861Z,13.52
2023-02-07T05:19:34.700Z,11.25
2023-02-07T05:22:02.930Z,5.47
2023-02-07T05:24:36.110Z,15.18
2023-02-07T05:27:05.301Z,13.75
2023-02-07T05:29:39.679Z,8.02
2023-02-07T05:32:26.480Z,6.30
2023-02-07T05:34:54.448Z,8.23
2023-02-07T05:37:22.421Z,9.15
2023-02-07T05:39:50.423Z,5.18
2023-02-07T05:42:18.670Z,11.02
2023-02-07T05:44:47.271Z,4.80
2023-02-07T05:47:16.715Z,8.50
2023-02-07T05:49:44.718Z,9.32
2023-02-07T05:52:12.713Z,17.58
2023-02-07T05:54:40.680Z,10.57
2023-02-07T05:57:08.933Z,12.45
2023-02-07T05:59:36.991Z,12.10
2023-02-07T06:02:08.507Z,7.95
2023-02-07T06:04:37.931Z,8.40
2023-02-07T06:07:06.306Z,9.00
2023-02-07T06:09:35.343Z,8.57
2023-02-07T06:12:05.240Z,13.88
2023-02-07T06:14:33.355Z,7.53
2023-02-07T06:17:01.316Z,3.55
2023-02-07T06:19:29.401Z,10.50
2023-02-07T06:21:58.801Z,14.30
2023-02-07T06:24:26.999Z,7.30
2023-02-07T06:26:54.997Z,7.57
2023-02-07T06:29:22.973Z,11.82
2023-02-07T06:31:52.627Z,9.77
2023-02-07T06:34:20.627Z,7.72
2023-02-07T06:36:48.618Z,10.15
2023-02-07T06:39:18.061Z,6.28
2023-02-07T06:41:46.249Z,7.90
2023-02-07T06:44:14.738Z,11.43
2023-02-07T06:46:43.884Z,5.82
2023-02-07T06:49:12.620Z,11.73
2023-02-07T06:51:40.716Z,10.18
2023-02-07T06:54:10.439Z,6.97
2023-02-07T06:56:39.867Z,12.55
2023-02-07T06:59:08.063Z,9.57
2023-02-07T07:01:36.081Z,13.18
2023-02-07T07:04:04.128Z,5.13
2023-02-07T07:06:32.563Z,7.63
2023-02-07T07:09:00.696Z,8.23
2023-02-07T07:11:28.832Z,13.10
2023-02-07T07:13:58.312Z,2.40
2023-02-07T07:16:26.452Z,10.73
2023-02-07T07:18:54.487Z,8.25
2023-02-07T07:21:22.512Z,9.10
2023-02-07T07:23:50.499Z,12.40
2023-02-07T07:26:18.440Z,17.90
2023-02-07T07:28:46.522Z,6.32
2023-02-07T07:31:16.063Z,5.13
2023-02-07T07:33:44.118Z,16.02
2023-02-07T07:36:12.292Z,8.57
2023-02-07T07:38:43.138Z,8.82
2023-02-07T07:41:15.186Z,7.72
2023-02-07T07:43:43.205Z,10.05
2023-02-07T07:46:11.473Z,13.75
2023-02-07T07:48:41.413Z,9.63
2023-02-07T07:51:09.539Z,10.45
2023-02-07T07:53:37.566Z,6.88
2023-02-07T07:56:06.522Z,7.13
2023-02-07T07:58:34.758Z,10.98
2023-02-07T08:01:06.071Z,7.10
2023-02-07T08:03:34.133Z,11.18
2023-02-07T08:06:08.265Z,4.38
2023-02-07T08:08:36.287Z,14.23
2023-02-07T08:11:05.571Z,9.85
2023-02-07T08:13:34.009Z,6.77
2023-02-07T08:16:02.250Z,9.77
2023-02-07T08:18:30.627Z,5.18
2023-02-07T08:20:58.629Z,7.45
2023-02-07T08:23:28.107Z,14.38
2023-02-07T08:25:56.442Z,9.00
2023-02-07T08:28:24.937Z,12.35
2023-02-07T08:30:54.032Z,6.00
2023-02-07T08:33:22.034Z,10.20
2023-02-07T08:35:51.295Z,16.10
2023-02-07T08:38:19.336Z,5.17
2023-02-07T08:40:48.840Z,8.65
2023-02-07T08:43:17.006Z,14.52
2023-02-07T08:45:49.326Z,11.18
2023-02-07T08:48:17.645Z,9.65
2023-02-07T08:50:45.707Z,11.82
2023-02-07T08:53:14.017Z,8.80
2023-02-07T08:55:43.139Z,9.13
2023-02-07T08:58:12.564Z,11.52
2023-02-07T09:00:41.098Z,11.85
2023-02-07T09:03:09.335Z,13.73
2023-02-07T09:05:37.630Z,13.10
2023-02-07T09:08:06.135Z,17.20
2023-02-07T09:10:34.263Z,6.78
2023-02-07T09:13:02.425Z,11.95
2023-02-07T10:25:09.519Z,8.90
2023-02-07T10:27:47.618Z,10.27
2023-02-07T10:30:17.819Z,5.63
2023-02-07T10:35:20.760Z,11.95
2023-02-07T10:37:55.090Z,12.05
2023-02-07T10:40:27.659Z,6.63
2023-02-07T10:43:00.983Z,4.45
2023-02-07T10:45:29.216Z,10.80
2023-02-07T10:47:58.572Z,13.55
2023-02-07T10:50:30.982Z,5.43
2023-02-07T10:53:00.995Z,5.93
2023-02-07T10:55:46.555Z,8.88
2023-02-07T10:58:23.392Z,9.15
2023-02-07T11:00:54.537Z,6.93
2023-02-07T11:03:24.595Z,5.35
2023-02-07T11:05:59.066Z,9.35
2023-02-07T11:08:30.889Z,8.30
2023-02-07T11:11:01.290Z,7.05
2023-02-07T11:13:32.719Z,7.68
2023-02-07T11:16:06.340Z,17.20
2023-02-07T11:18:44.510Z,6.15
2023-02-07T11:21:26.269Z,12.13
2023-02-07T11:24:01.265Z,12.48
2023-02-07T11:26:54.733Z,6.90
2023-02-07T11:29:25.800Z,7.65
2023-02-07T11:31:56.961Z,8.90
2023-02-07T11:34:32.192Z,4.03
2023-02-07T11:37:14.948Z,5.38
2023-02-07T11:39:45.108Z,5.88
2023-02-07T11:44:43.752Z,4.75
2023-02-07T11:47:17.632Z,9.13
2023-02-07T11:49:50.720Z,9.07
2023-02-07T11:52:19.490Z,11.27
2023-02-07T11:54:54.124Z,7.28
2023-02-07T11:57:24.971Z,8.18
2023-02-07T12:00:06.767Z,8.85
2023-02-07T12:02:36.698Z,8.18
2023-02-07T12:05:19.972Z,8.00
2023-02-07T12:07:51.255Z,3.88
2023-02-07T12:10:30.857Z,4.20
2023-02-07T12:13:04.605Z,3.53
2023-02-07T12:15:39.541Z,12.32
2023-02-07T12:18:15.381Z,11.40
2023-02-07T12:20:51.632Z,7.20
2023-02-07T12:23:41.771Z,6.25
2023-02-07T12:26:19.004Z,19.08
2023-02-07T12:28:58.767Z,3.08
2023-02-07T12:31:42.714Z,5.57
2023-02-07T12:34:18.716Z,3.65
2023-02-07T12:36:53.973Z,10.25
2023-02-07T12:39:28.611Z,14.43
2023-02-07T12:42:06.844Z,9.98
2023-02-07T12:44:39.562Z,10.43
2023-02-07T12:47:14.919Z,12.63
2023-02-07T12:50:00.100Z,8.55
2023-02-07T12:52:43.381Z,9.90
2023-02-07T12:55:21.861Z,12.77
2023-02-07T12:58:04.387Z,5.85
2023-02-07T13:00:46.845Z,7.40
2023-02-07T13:03:31.028Z,6.47
2023-02-07T13:06:06.041Z,9.73
2023-02-07T13:08:43.909Z,5.38
2023-02-07T13:11:23.098Z,4.45
2023-02-07T13:14:06.319Z,10.90
2023-02-07T13:16:41.788Z,7.10
2023-02-07T13:19:16.838Z,11.60
2023-02-07T13:21:51.641Z,8.70
2023-02-07T13:24:25.525Z,6.47
2023-02-07T13:26:58.314Z,6.65
2023-02-07T13:29:31.973Z,8.00
2023-02-07T13:32:06.384Z,7.40
2023-02-07T13:34:49.540Z,7.55
2023-02-07T13:40:23.447Z,11.40
2023-02-07T13:42:58.679Z,8.98
2023-02-07T13:45:38.499Z,10.00
2023-02-07T13:48:20.930Z,9.95
2023-02-07T13:50:58.765Z,7.57
2023-02-07T13:53:49.010Z,7.82
2023-02-07T13:59:41.342Z,13.70
2023-02-07T14:02:19.134Z,10.40
2023-02-07T14:04:51.630Z,9.18
2023-02-07T14:07:26.261Z,7.10
2023-02-07T14:09:58.726Z,9.73
2023-02-07T14:12:37.383Z,8.85
2023-02-07T14:16:24.240Z,8.15
2023-02-07T14:18:54.905Z,7.10
2023-02-07T14:21:40.253Z,7.22
2023-02-07T14:24:31.511Z,18.92
2023-02-07T14:27:04.665Z,11.20
2023-02-07T14:29:57.925Z,9.77
2023-02-07T14:32:32.958Z,10.10
2023-02-07T14:35:07.770Z,8.80
2023-02-07T14:37:47.163Z,7.50
2023-02-07T14:40:25.919Z,22.40
2023-02-07T14:43:00.329Z,6.45
2023-02-07T14:45:31.881Z,6.22
2023-02-07T14:48:00.391Z,9.00
2023-02-07T14:50:33.617Z,5.60
2023-02-07T14:53:04.526Z,10.65
2023-02-07T14:55:36.366Z,9.18
2023-02-07T14:58:08.557Z,6.93
2023-02-07T15:00:43.986Z,8.35
2023-02-07T15:03:15.056Z,4.80
2023-02-07T15:05:52.739Z,4.65
2023-02-07T15:08:22.938Z,13.10
2023-02-07T15:13:28.974Z,11.82
2023-02-07T15:16:01.685Z,10.00
2023-02-07T15:18:34.005Z,8.30
2023-02-07T15:21:04.119Z,7.28
2023-02-07T15:23:36.028Z,5.82
2023-02-07T15:26:07.814Z,8.10
2023-02-07T15:28:36.110Z,11.48
2023-02-07T15:31:06.174Z,13.55
2023-02-07T15:33:37.044Z,11.13
2023-02-07T15:36:28.701Z,7.95
2023-02-07T15:38:57.733Z,7.60
2023-02-07T15:41:26.882Z,5.88
2023-02-07T15:43:59.719Z,10.25
2023-02-07T15:46:44.243Z,9.15
2023-02-07T15:49:25.407Z,12.98
2023-02-07T15:51:58.613Z,11.45
2023-02-07T15:54:27.813Z,18.58
2023-02-07T15:56:59.810Z,10.60
2023-02-07T15:59:31.137Z,12.52
2023-02-07T16:02:02.492Z,7.45
2023-02-07T16:04:33.376Z,10.88
2023-02-07T16:07:06.205Z,14.38
2023-02-07T16:09:40.585Z,14.30
2023-02-07T16:12:32.351Z,22.55
2023-02-07T16:15:01.674Z,9.90
2023-02-07T16:17:42.104Z,17.95
2023-02-07T16:20:15.889Z,12.32
2023-02-07T16:22:46.924Z,16.23
2023-02-07T16:25:18.486Z,15.25
2023-02-07T16:27:48.989Z,19.73
2023-02-07T16:30:19.526Z,18.33
2023-02-07T16:32:48.255Z,14.00
2023-02-07T16:35:23.737Z,21.63
2023-02-07T16:37:53.659Z,15.02
2023-02-07T16:40:23.354Z,8.80
2023-02-07T16:42:53.997Z,19.15
2023-02-07T16:45:24.958Z,6.22
2023-02-07T16:47:53.197Z,15.75
2023-02-07T16:50:23.130Z,8.50
2023-02-07T16:52:54.789Z,10.95
2023-02-07T16:55:22.786Z,13.63
2023-02-07T16:57:50.871Z,9.30
2023-02-07T17:00:22.179Z,14.57
2023-02-07T17:02:51.537Z,9.15
2023-02-07T17:05:20.533Z,11.88
2023-02-07T17:07:50.161Z,14.20
2023-02-07T17:10:23.487Z,7.78
2023-02-07T17:12:51.556Z,16.10
2023-02-07T17:15:19.797Z,11.77
2023-02-07T17:17:47.962Z,16.52
2023-02-07T17:20:24.252Z,20.75
2023-02-07T17:22:53.456Z,20.05
2023-02-07T17:25:25.189Z,15.52
2023-02-07T17:27:53.461Z,18.30
2023-02-07T17:30:23.472Z,25.88
2023-02-07T17:32:51.515Z,46.35
2023-02-07T17:35:20.757Z,57.85
2023-02-07T17:37:56.014Z,101.60
2023-02-07T17:40:30.906Z,84.10
2023-02-07T17:42:59.304Z,52.63
2023-02-07T17:45:31.293Z,30.83
2023-02-07T17:47:59.629Z,26.52
2023-02-07T17:50:30.524Z,27.85
2023-02-07T17:52:59.120Z,32.88
2023-02-07T17:55:28.951Z,22.17
2023-02-07T17:57:57.367Z,20.75
2023-02-07T18:00:27.987Z,26.40
2023-02-07T18:02:56.738Z,26.67
2023-02-07T18:05:25.784Z,25.90
2023-02-07T18:07:54.496Z,15.40
2023-02-07T18:10:26.837Z,17.15
2023-02-07T18:12:56.564Z,20.80
2023-02-07T18:15:26.176Z,70.97
2023-02-07T18:17:54.940Z,54.15
2023-02-07T18:20:24.713Z,58.08
2023-02-07T18:22:54.555Z,52.30
2023-02-07T18:25:22.853Z,25.80
2023-02-07T18:27:52.019Z,19.15
2023-02-07T18:30:23.342Z,15.50
2023-02-07T18:32:53.507Z,39.70
2023-02-07T18:37:49.780Z,19.08
2023-02-07T18:40:17.823Z,19.42
2023-02-07T18:42:45.836Z,15.93
2023-02-07T18:45:17.475Z,17.85
2023-02-07T18:47:55.124Z,14.00
2023-02-07T18:50:24.092Z,19.85
2023-02-07T18:52:52.153Z,20.85
2023-02-07T18:55:20.260Z,27.02
2023-02-07T18:57:48.275Z,35.42
2023-02-07T19:00:16.714Z,24.02
2023-02-07T19:02:44.777Z,11.80
2023-02-07T19:05:14.231Z,18.30
2023-02-07T19:07:42.825Z,18.55
2023-02-07T19:10:12.526Z,25.40
2023-02-07T19:12:41.779Z,20.70
2023-02-07T19:15:10.633Z,34.87
2023-02-07T19:17:38.857Z,19.95
2023-02-07T19:20:07.496Z,19.08
2023-02-07T19:22:37.632Z,26.35
2023-02-07T19:27:35.021Z,18.10
2023-02-07T19:30:03.085Z,29.92
2023-02-07T19:32:31.105Z,33.05
2023-02-07T19:34:59.120Z,51.95
2023-02-07T19:37:27.142Z,62.83
2023-02-07T19:39:57.226Z,56.17
2023-02-07T19:42:25.718Z,71.97
2023-02-07T19:44:53.769Z,30.08
2023-02-07T19:47:21.820Z,24.70
2023-02-07T19:49:52.045Z,32.40
2023-02-07T19:54:54.095Z,28.27
2023-02-07T19:57:25.333Z,24.83
2023-02-07T19:59:55.395Z,21.73
2023-02-07T20:02:24.602Z,21.02
2023-02-07T20:04:54.742Z,16.13
2023-02-07T20:09:51.097Z,24.55
2023-02-07T20:12:19.104Z,28.20
2023-02-07T20:14:48.604Z,18.25
2023-02-07T20:17:19.984Z,22.08
2023-02-07T20:19:48.168Z,16.88
2023-02-07T20:22:16.246Z,26.80
2023-02-07T20:24:44.349Z,29.48
2023-02-07T20:27:12.412Z,28.15
2023-02-07T20:29:43.770Z,18.13
2023-02-07T20:32:14.916Z,17.88
2023-02-07T20:34:43.180Z,15.73
2023-02-07T20:37:15.472Z,14.77
2023-02-07T20:39:43.961Z,17.40
2023-02-07T20:42:11.958Z,19.02
2023-02-07T20:44:42.828Z,19.33
2023-02-07T20:47:14.629Z,18.67
2023-02-07T20:49:42.703Z,18.48
2023-02-07T20:52:10.709Z,23.38
2023-02-07T20:54:38.837Z,17.30
2023-02-07T20:57:07.264Z,20.75
2023-02-07T20:59:35.403Z,26.55
2023-02-07T21:02:03.807Z,27.45
2023-02-07T21:04:34.874Z,35.97
2023-02-07T21:07:03.163Z,38.95
2023-02-07T21:09:32.304Z,44.08
2023-02-07T21:12:00.399Z,37.13
2023-02-07T21:14:34.698Z,38.47
2023-02-07T21:17:06.324Z,34.65
2023-02-07T21:19:37.820Z,39.80
2023-02-07T21:22:06.226Z,48.22
2023-02-07T21:24:34.564Z,36.17
2023-02-07T21:27:05.207Z,35.63
2023-02-07T21:29:35.272Z,30.77
2023-02-07T21:32:03.491Z,28.38
2023-02-07T21:34:31.545Z,29.80
2023-02-07T21:37:00.946Z,34.92
2023-02-07T21:39:28.988Z,21.60
2023-02-07T21:41:57.083Z,27.42
2023-02-07T21:44:25.078Z,26.52
2023-02-07T21:46:58.262Z,27.48
2023-02-07T21:49:29.246Z,22.95
2023-02-07T21:52:01.071Z,26.15
2023-02-07T21:54:29.252Z,22.50
2023-02-07T21:56:57.303Z,25.17
2023-02-07T21:59:29.832Z,24.15
2023-02-07T22:02:00.537Z,27.48
2023-02-07T22:04:29.896Z,32.92
2023-02-07T22:06:58.108Z,32.85
2023-02-07T22:09:27.520Z,33.25
2023-02-07T22:11:55.714Z,24.75
2023-02-07T22:14:24.897Z,27.27
2023-02-07T22:16:53.372Z,27.42
2023-02-07T22:19:22.119Z,35.10
2023-02-07T22:21:50.651Z,31.98
2023-02-07T22:24:20.792Z,31.67
2023-02-07T22:29:18.058Z,22.25
2023-02-07T22:31:46.366Z,25.30
2023-02-07T22:34:15.446Z,23.40
2023-02-07T22:36:45.261Z,28.73
2023-02-07T22:39:14.985Z,30.25
2023-02-07T22:41:43.047Z,33.50
2023-02-07T22:44:15.120Z,33.10
2023-02-07T22:46:44.368Z,28.92
2023-02-07T22:49:13.825Z,26.60
2023-02-07T22:51:41.805Z,26.15
2023-02-07T22:54:15.704Z,28.77
2023-02-07T22:56:45.047Z,28.20
2023-02-07T23:01:45.161Z,27.70
2023-02-07T23:04:17.371Z,26.42
2023-02-07T23:06:48.463Z,32.35
2023-02-07T23:09:17.431Z,28.25
2023-02-07T23:11:45.842Z,31.67
2023-02-07T23:14:17.318Z,24.80
2023-02-07T23:16:45.343Z,32.13
2023-02-07T23:19:15.907Z,41.30
2023-02-07T23:21:44.315Z,80.88
2023-02-07T23:24:12.503Z,42.60
2023-02-07T23:26:41.106Z,37.97
2023-02-07T23:29:09.113Z,34.63
2023-02-07T23:31:38.718Z,29.70
2023-02-07T23:34:06.837Z,29.75
2023-02-07T23:36:36.020Z,32.20
2023-02-07T23:39:04.968Z,22.80
2023-02-07T23:41:33.390Z,29.98
2023-02-07T23:44:02.706Z,24.60
2023-02-07T23:46:32.483Z,26.88
2023-02-07T23:49:02.111Z,25.40
2023-02-07T23:51:30.130Z,21.85
2023-02-07T23:53:58.636Z,23.95
2023-02-07T23:56:26.803Z,22.17
2023-02-07T23:58:55.113Z,26.15
